sensor_id;sensor_type;location;lat;lon;timestamp;P1;durP1;ratioP1;P2;durP2;ratioP2
24517;SDS011;12678;51.336;12.406;2022-11-20T00:01:42;19.95;;;9.18;;
24517;SDS011;12678;51.336;12.406;2022-11-20T00:04:08;22.52;;;9.38;;
24517;SDS011;12678;51.336;12.406;2022-11-20T00:06:36;19.75;;;7.72;;
24517;SDS011;12678;51.336;12.406;2022-11-20T00:09:02;20.42;;;8.55;;
24517;SDS011;12678;51.336;12.406;2022-11-20T00:11:28;21.45;;;9.05;;
24517;SDS011;12678;51.336;12.406;2022-11-20T00:13:56;19.92;;;8.68;;
24517;SDS011;12678;51.336;12.406;2022-11-20T00:16:25;20.77;;;8.80;;
24517;SDS011;12678;51.336;12.406;2022-11-20T00:18:52;20.67;;;9.07;;
24517;SDS011;12678;51.336;12.406;2022-11-20T00:21:19;19.08;;;8.52;;
24517;SDS011;12678;51.336;12.406;2022-11-20T00:23:47;20.38;;;8.63;;
24517;SDS011;12678;51.336;12.406;2022-11-20T00:26:13;25.00;;;9.50;;
24517;SDS011;12678;51.336;12.406;2022-11-20T00:28:41;30.15;;;9.27;;
24517;SDS011;12678;51.336;12.406;2022-11-20T00:31:10;21.10;;;7.90;;
24517;SDS011;12678;51.336;12.406;2022-11-20T00:33:38;20.55;;;8.30;;
24517;SDS011;12678;51.336;12.406;2022-11-20T00:36:14;26.38;;;8.95;;
24517;SDS011;12678;51.336;12.406;2022-11-20T00:38:42;18.52;;;7.45;;
24517;SDS011;12678;51.336;12.406;2022-11-20T00:41:09;20.65;;;9.10;;
24517;SDS011;12678;51.336;12.406;2022-11-20T00:43:37;21.02;;;8.52;;
24517;SDS011;12678;51.336;12.406;2022-11-20T00:46:04;21.27;;;8.48;;
24517;SDS011;12678;51.336;12.406;2022-11-20T00:48:34;18.40;;;9.07;;
24517;SDS011;12678;51.336;12.406;2022-11-20T00:51:00;25.55;;;9.10;;
24517;SDS011;12678;51.336;12.406;2022-11-20T00:53:26;18.92;;;8.32;;
24517;SDS011;12678;51.336;12.406;2022-11-20T00:55:54;22.27;;;8.30;;
24517;SDS011;12678;51.336;12.406;2022-11-20T00:58:21;20.52;;;8.27;;
24517;SDS011;12678;51.336;12.406;2022-11-20T01:00:47;20.85;;;7.93;;
24517;SDS011;12678;51.336;12.406;2022-11-20T01:03:14;22.58;;;8.63;;
24517;SDS011;12678;51.336;12.406;2022-11-20T01:05:41;19.45;;;8.75;;
24517;SDS011;12678;51.336;12.406;2022-11-20T01:08:07;17.88;;;7.72;;
24517;SDS011;12678;51.336;12.406;2022-11-20T01:10:32;20.73;;;8.40;;
24517;SDS011;12678;51.336;12.406;2022-11-20T01:12:58;26.42;;;8.98;;
24517;SDS011;12678;51.336;12.406;2022-11-20T01:15:42;27.48;;;8.95;;
24517;SDS011;12678;51.336;12.406;2022-11-20T01:18:08;18.75;;;9.23;;
24517;SDS011;12678;51.336;12.406;2022-11-20T01:20:37;27.67;;;10.63;;
24517;SDS011;12678;51.336;12.406;2022-11-20T01:23:03;29.50;;;8.98;;
24517;SDS011;12678;51.336;12.406;2022-11-20T01:25:29;27.27;;;10.18;;
24517;SDS011;12678;51.336;12.406;2022-11-20T01:27:55;22.48;;;9.00;;
24517;SDS011;12678;51.336;12.406;2022-11-20T01:30:20;21.77;;;9.73;;
24517;SDS011;12678;51.336;12.406;2022-11-20T01:32:46;21.90;;;8.93;;
24517;SDS011;12678;51.336;12.406;2022-11-20T01:35:12;29.35;;;9.27;;
24517;SDS011;12678;51.336;12.406;2022-11-20T01:37:37;23.27;;;8.82;;
24517;SDS011;12678;51.336;12.406;2022-11-20T01:40:03;20.15;;;8.18;;
24517;SDS011;12678;51.336;12.406;2022-11-20T01:42:29;20.65;;;9.18;;
24517;SDS011;12678;51.336;12.406;2022-11-20T01:48:18;19.52;;;8.05;;
24517;SDS011;12678;51.336;12.406;2022-11-20T01:50:45;23.45;;;8.52;;
24517;SDS011;12678;51.336;12.406;2022-11-20T01:53:12;18.80;;;7.63;;
24517;SDS011;12678;51.336;12.406;2022-11-20T01:55:42;22.58;;;9.05;;
24517;SDS011;12678;51.336;12.406;2022-11-20T01:58:20;25.90;;;8.48;;
24517;SDS011;12678;51.336;12.406;2022-11-20T02:00:49;18.88;;;8.93;;
24517;SDS011;12678;51.336;12.406;2022-11-20T02:03:18;19.33;;;9.27;;
24517;SDS011;12678;51.336;12.406;2022-11-20T02:08:21;37.70;;;9.70;;
24517;SDS011;12678;51.336;12.406;2022-11-20T02:10:48;19.25;;;8.10;;
24517;SDS011;12678;51.336;12.406;2022-11-20T02:13:13;22.70;;;9.20;;
24517;SDS011;12678;51.336;12.406;2022-11-20T02:15:58;19.80;;;9.38;;
24517;SDS011;12678;51.336;12.406;2022-11-20T02:18:24;21.60;;;8.43;;
24517;SDS011;12678;51.336;12.406;2022-11-20T02:20:53;22.23;;;8.98;;
24517;SDS011;12678;51.336;12.406;2022-11-20T02:23:33;23.10;;;8.25;;
24517;SDS011;12678;51.336;12.406;2022-11-20T02:26:06;23.05;;;7.32;;
24517;SDS011;12678;51.336;12.406;2022-11-20T02:28:36;25.42;;;9.35;;
24517;SDS011;12678;51.336;12.406;2022-11-20T02:31:02;24.25;;;10.52;;
24517;SDS011;12678;51.336;12.406;2022-11-20T02:33:27;29.25;;;9.98;;
24517;SDS011;12678;51.336;12.406;2022-11-20T02:35:53;34.50;;;9.23;;
24517;SDS011;12678;51.336;12.406;2022-11-20T02:38:19;26.80;;;10.43;;
24517;SDS011;12678;51.336;12.406;2022-11-20T02:40:44;24.73;;;9.25;;
24517;SDS011;12678;51.336;12.406;2022-11-20T02:43:10;19.25;;;8.88;;
24517;SDS011;12678;51.336;12.406;2022-11-20T02:45:36;25.58;;;9.43;;
24517;SDS011;12678;51.336;12.406;2022-11-20T02:48:02;23.15;;;9.38;;
24517;SDS011;12678;51.336;12.406;2022-11-20T02:50:28;22.80;;;9.65;;
24517;SDS011;12678;51.336;12.406;2022-11-20T02:52:54;18.50;;;8.50;;
24517;SDS011;12678;51.336;12.406;2022-11-20T02:55:19;26.10;;;10.70;;
24517;SDS011;12678;51.336;12.406;2022-11-20T02:57:45;31.02;;;10.00;;
24517;SDS011;12678;51.336;12.406;2022-11-20T03:00:11;18.48;;;7.47;;
24517;SDS011;12678;51.336;12.406;2022-11-20T03:02:37;23.35;;;9.63;;
24517;SDS011;12678;51.336;12.406;2022-11-20T03:05:03;26.17;;;10.23;;
24517;SDS011;12678;51.336;12.406;2022-11-20T03:07:28;26.55;;;10.15;;
24517;SDS011;12678;51.336;12.406;2022-11-20T03:09:54;25.60;;;10.20;;
24517;SDS011;12678;51.336;12.406;2022-11-20T03:12:20;34.30;;;9.63;;
24517;SDS011;12678;51.336;12.406;2022-11-20T03:14:46;29.63;;;10.32;;
24517;SDS011;12678;51.336;12.406;2022-11-20T03:17:11;28.45;;;9.93;;
24517;SDS011;12678;51.336;12.406;2022-11-20T03:19:37;31.38;;;9.73;;
24517;SDS011;12678;51.336;12.406;2022-11-20T03:22:03;33.00;;;10.75;;
24517;SDS011;12678;51.336;12.406;2022-11-20T03:24:29;27.98;;;9.00;;
24517;SDS011;12678;51.336;12.406;2022-11-20T03:26:54;23.38;;;8.50;;
24517;SDS011;12678;51.336;12.406;2022-11-20T03:29:20;27.63;;;10.68;;
24517;SDS011;12678;51.336;12.406;2022-11-20T03:31:45;27.00;;;10.00;;
24517;SDS011;12678;51.336;12.406;2022-11-20T03:34:11;24.67;;;9.35;;
24517;SDS011;12678;51.336;12.406;2022-11-20T03:36:41;27.67;;;10.77;;
24517;SDS011;12678;51.336;12.406;2022-11-20T03:39:07;24.83;;;9.65;;
24517;SDS011;12678;51.336;12.406;2022-11-20T03:41:38;29.17;;;10.95;;
24517;SDS011;12678;51.336;12.406;2022-11-20T03:44:06;27.38;;;10.95;;
24517;SDS011;12678;51.336;12.406;2022-11-20T03:46:33;30.63;;;11.60;;
24517;SDS011;12678;51.336;12.406;2022-11-20T03:48:59;33.88;;;10.70;;
24517;SDS011;12678;51.336;12.406;2022-11-20T03:51:29;36.72;;;10.85;;
24517;SDS011;12678;51.336;12.406;2022-11-20T03:54:00;33.28;;;12.00;;
24517;SDS011;12678;51.336;12.406;2022-11-20T03:56:29;27.88;;;10.48;;
24517;SDS011;12678;51.336;12.406;2022-11-20T03:58:57;31.55;;;10.48;;
24517;SDS011;12678;51.336;12.406;2022-11-20T04:01:25;29.35;;;11.20;;
24517;SDS011;12678;51.336;12.406;2022-11-20T04:03:52;24.98;;;9.90;;
24517;SDS011;12678;51.336;12.406;2022-11-20T04:06:21;25.67;;;10.48;;
24517;SDS011;12678;51.336;12.406;2022-11-20T04:08:48;31.48;;;10.95;;
24517;SDS011;12678;51.336;12.406;2022-11-20T04:11:18;39.80;;;13.30;;
24517;SDS011;12678;51.336;12.406;2022-11-20T04:13:49;28.45;;;10.77;;
24517;SDS011;12678;51.336;12.406;2022-11-20T04:16:16;35.70;;;11.82;;
24517;SDS011;12678;51.336;12.406;2022-11-20T04:18:43;31.98;;;11.93;;
24517;SDS011;12678;51.336;12.406;2022-11-20T04:21:09;29.30;;;11.73;;
24517;SDS011;12678;51.336;12.406;2022-11-20T04:23:35;32.92;;;11.55;;
24517;SDS011;12678;51.336;12.406;2022-11-20T04:26:05;24.75;;;10.60;;
24517;SDS011;12678;51.336;12.406;2022-11-20T04:28:32;39.40;;;11.70;;
24517;SDS011;12678;51.336;12.406;2022-11-20T04:31:04;38.00;;;10.57;;
24517;SDS011;12678;51.336;12.406;2022-11-20T04:33:33;27.55;;;10.25;;
24517;SDS011;12678;51.336;12.406;2022-11-20T04:36:00;29.85;;;10.88;;
24517;SDS011;12678;51.336;12.406;2022-11-20T04:38:30;34.42;;;10.77;;
24517;SDS011;12678;51.336;12.406;2022-11-20T04:41:00;33.75;;;13.25;;
24517;SDS011;12678;51.336;12.406;2022-11-20T04:43:27;32.92;;;11.50;;
24517;SDS011;12678;51.336;12.406;2022-11-20T04:45:53;34.75;;;12.38;;
24517;SDS011;12678;51.336;12.406;2022-11-20T04:48:19;33.95;;;12.18;;
24517;SDS011;12678;51.336;12.406;2022-11-20T04:50:45;26.83;;;10.60;;
24517;SDS011;12678;51.336;12.406;2022-11-20T04:53:10;31.17;;;10.57;;
24517;SDS011;12678;51.336;12.406;2022-11-20T04:55:36;29.27;;;10.73;;
24517;SDS011;12678;51.336;12.406;2022-11-20T04:58:02;28.42;;;11.38;;
24517;SDS011;12678;51.336;12.406;2022-11-20T05:00:27;31.00;;;12.57;;
24517;SDS011;12678;51.336;12.406;2022-11-20T05:02:53;32.03;;;11.48;;
24517;SDS011;12678;51.336;12.406;2022-11-20T05:05:19;28.25;;;10.70;;
24517;SDS011;12678;51.336;12.406;2022-11-20T05:07:44;29.75;;;11.82;;
24517;SDS011;12678;51.336;12.406;2022-11-20T05:10:10;23.45;;;10.65;;
24517;SDS011;12678;51.336;12.406;2022-11-20T05:12:35;33.40;;;12.40;;
24517;SDS011;12678;51.336;12.406;2022-11-20T05:15:02;33.70;;;12.30;;
24517;SDS011;12678;51.336;12.406;2022-11-20T05:17:27;28.40;;;10.40;;
24517;SDS011;12678;51.336;12.406;2022-11-20T05:19:53;29.77;;;10.80;;
24517;SDS011;12678;51.336;12.406;2022-11-20T05:22:18;33.50;;;12.48;;
24517;SDS011;12678;51.336;12.406;2022-11-20T05:24:44;29.35;;;10.23;;
24517;SDS011;12678;51.336;12.406;2022-11-20T05:27:09;29.63;;;10.48;;
24517;SDS011;12678;51.336;12.406;2022-11-20T05:29:35;22.10;;;9.43;;
24517;SDS011;12678;51.336;12.406;2022-11-20T05:32:01;35.13;;;12.07;;
24517;SDS011;12678;51.336;12.406;2022-11-20T05:34:27;26.55;;;11.18;;
24517;SDS011;12678;51.336;12.406;2022-11-20T05:36:52;26.63;;;10.63;;
24517;SDS011;12678;51.336;12.406;2022-11-20T05:39:18;29.17;;;10.25;;
24517;SDS011;12678;51.336;12.406;2022-11-20T05:41:44;27.33;;;10.40;;
24517;SDS011;12678;51.336;12.406;2022-11-20T05:44:10;34.72;;;11.52;;
24517;SDS011;12678;51.336;12.406;2022-11-20T05:46:36;31.70;;;10.57;;
24517;SDS011;12678;51.336;12.406;2022-11-20T05:49:02;30.08;;;9.63;;
24517;SDS011;12678;51.336;12.406;2022-11-20T05:51:27;26.52;;;10.68;;
24517;SDS011;12678;51.336;12.406;2022-11-20T05:53:53;21.10;;;9.50;;
24517;SDS011;12678;51.336;12.406;2022-11-20T05:56:21;37.47;;;10.85;;
24517;SDS011;12678;51.336;12.406;2022-11-20T05:58:47;38.25;;;11.82;;
24517;SDS011;12678;51.336;12.406;2022-11-20T06:01:15;23.17;;;9.30;;
24517;SDS011;12678;51.336;12.406;2022-11-20T06:03:42;37.78;;;10.75;;
24517;SDS011;12678;51.336;12.406;2022-11-20T06:06:11;26.35;;;9.75;;
24517;SDS011;12678;51.336;12.406;2022-11-20T06:08:37;28.98;;;10.15;;
24517;SDS011;12678;51.336;12.406;2022-11-20T06:11:03;36.53;;;12.18;;
24517;SDS011;12678;51.336;12.406;2022-11-20T06:13:33;28.15;;;10.90;;
24517;SDS011;12678;51.336;12.406;2022-11-20T06:15:59;30.42;;;10.55;;
24517;SDS011;12678;51.336;12.406;2022-11-20T06:18:26;43.50;;;10.30;;
24517;SDS011;12678;51.336;12.406;2022-11-20T06:21:04;29.98;;;11.25;;
24517;SDS011;12678;51.336;12.406;2022-11-20T06:23:32;28.25;;;10.63;;
24517;SDS011;12678;51.336;12.406;2022-11-20T06:26:18;27.23;;;10.60;;
24517;SDS011;12678;51.336;12.406;2022-11-20T06:28:48;33.28;;;11.00;;
24517;SDS011;12678;51.336;12.406;2022-11-20T06:31:16;34.75;;;10.45;;
24517;SDS011;12678;51.336;12.406;2022-11-20T06:33:44;39.92;;;12.55;;
24517;SDS011;12678;51.336;12.406;2022-11-20T06:36:10;36.42;;;10.57;;
24517;SDS011;12678;51.336;12.406;2022-11-20T06:38:38;26.17;;;10.52;;
24517;SDS011;12678;51.336;12.406;2022-11-20T06:41:04;23.83;;;10.45;;
24517;SDS011;12678;51.336;12.406;2022-11-20T06:43:31;26.60;;;11.20;;
24517;SDS011;12678;51.336;12.406;2022-11-20T06:45:57;28.80;;;9.93;;
24517;SDS011;12678;51.336;12.406;2022-11-20T06:48:24;25.95;;;10.27;;
24517;SDS011;12678;51.336;12.406;2022-11-20T06:50:53;40.55;;;11.27;;
24517;SDS011;12678;51.336;12.406;2022-11-20T06:53:19;28.30;;;10.15;;
24517;SDS011;12678;51.336;12.406;2022-11-20T06:55:45;25.75;;;9.65;;
24517;SDS011;12678;51.336;12.406;2022-11-20T06:58:12;31.88;;;11.05;;
24517;SDS011;12678;51.336;12.406;2022-11-20T07:00:39;28.05;;;11.23;;
24517;SDS011;12678;51.336;12.406;2022-11-20T07:03:05;29.10;;;10.88;;
24517;SDS011;12678;51.336;12.406;2022-11-20T07:05:31;27.38;;;10.88;;
24517;SDS011;12678;51.336;12.406;2022-11-20T07:07:58;41.10;;;11.20;;
24517;SDS011;12678;51.336;12.406;2022-11-20T07:10:24;29.90;;;11.43;;
24517;SDS011;12678;51.336;12.406;2022-11-20T07:12:51;21.92;;;9.73;;
24517;SDS011;12678;51.336;12.406;2022-11-20T07:15:17;26.63;;;10.30;;
24517;SDS011;12678;51.336;12.406;2022-11-20T07:17:44;26.13;;;11.00;;
24517;SDS011;12678;51.336;12.406;2022-11-20T07:20:12;29.23;;;10.98;;
24517;SDS011;12678;51.336;12.406;2022-11-20T07:22:38;30.75;;;10.82;;
24517;SDS011;12678;51.336;12.406;2022-11-20T07:25:04;25.48;;;9.50;;
24517;SDS011;12678;51.336;12.406;2022-11-20T07:27:30;31.13;;;10.15;;
24517;SDS011;12678;51.336;12.406;2022-11-20T07:29:55;27.50;;;10.45;;
24517;SDS011;12678;51.336;12.406;2022-11-20T07:32:21;35.83;;;10.52;;
24517;SDS011;12678;51.336;12.406;2022-11-20T07:34:47;26.30;;;9.50;;
24517;SDS011;12678;51.336;12.406;2022-11-20T07:37:13;23.77;;;8.48;;
24517;SDS011;12678;51.336;12.406;2022-11-20T07:39:39;30.55;;;11.43;;
24517;SDS011;12678;51.336;12.406;2022-11-20T07:42:05;28.98;;;10.48;;
24517;SDS011;12678;51.336;12.406;2022-11-20T07:44:32;32.65;;;11.52;;
24517;SDS011;12678;51.336;12.406;2022-11-20T07:46:58;28.95;;;9.35;;
24517;SDS011;12678;51.336;12.406;2022-11-20T07:49:24;24.35;;;10.35;;
24517;SDS011;12678;51.336;12.406;2022-11-20T07:51:52;29.73;;;10.05;;
24517;SDS011;12678;51.336;12.406;2022-11-20T07:54:18;33.13;;;10.85;;
24517;SDS011;12678;51.336;12.406;2022-11-20T07:56:45;35.33;;;9.65;;
24517;SDS011;12678;51.336;12.406;2022-11-20T07:59:11;33.35;;;11.85;;
24517;SDS011;12678;51.336;12.406;2022-11-20T08:01:37;27.35;;;11.00;;
24517;SDS011;12678;51.336;12.406;2022-11-20T08:04:03;26.25;;;10.75;;
24517;SDS011;12678;51.336;12.406;2022-11-20T08:06:29;27.88;;;10.80;;
24517;SDS011;12678;51.336;12.406;2022-11-20T08:08:55;28.30;;;10.95;;
24517;SDS011;12678;51.336;12.406;2022-11-20T08:11:21;23.65;;;10.35;;
24517;SDS011;12678;51.336;12.406;2022-11-20T08:14:04;31.35;;;11.18;;
24517;SDS011;12678;51.336;12.406;2022-11-20T08:16:44;28.25;;;11.18;;
24517;SDS011;12678;51.336;12.406;2022-11-20T08:19:12;37.78;;;10.55;;
24517;SDS011;12678;51.336;12.406;2022-11-20T08:21:39;30.73;;;10.93;;
24517;SDS011;12678;51.336;12.406;2022-11-20T08:24:05;26.55;;;10.07;;
24517;SDS011;12678;51.336;12.406;2022-11-20T08:26:32;32.28;;;11.38;;
24517;SDS011;12678;51.336;12.406;2022-11-20T08:28:58;32.75;;;10.82;;
24517;SDS011;12678;51.336;12.406;2022-11-20T08:31:26;28.00;;;11.55;;
24517;SDS011;12678;51.336;12.406;2022-11-20T08:33:52;31.92;;;10.68;;
24517;SDS011;12678;51.336;12.406;2022-11-20T08:36:19;35.28;;;11.68;;
24517;SDS011;12678;51.336;12.406;2022-11-20T08:38:49;26.75;;;10.80;;
24517;SDS011;12678;51.336;12.406;2022-11-20T08:41:18;29.58;;;10.88;;
24517;SDS011;12678;51.336;12.406;2022-11-20T08:44:04;32.50;;;10.63;;
24517;SDS011;12678;51.336;12.406;2022-11-20T08:46:38;27.02;;;9.57;;
24517;SDS011;12678;51.336;12.406;2022-11-20T08:49:14;26.90;;;9.50;;
24517;SDS011;12678;51.336;12.406;2022-11-20T08:51:40;33.22;;;10.63;;
24517;SDS011;12678;51.336;12.406;2022-11-20T08:54:07;31.30;;;10.63;;
24517;SDS011;12678;51.336;12.406;2022-11-20T08:56:33;28.30;;;10.15;;
24517;SDS011;12678;51.336;12.406;2022-11-20T08:58:59;29.50;;;10.75;;
24517;SDS011;12678;51.336;12.406;2022-11-20T09:01:25;27.25;;;9.07;;
24517;SDS011;12678;51.336;12.406;2022-11-20T09:03:51;28.75;;;10.98;;
24517;SDS011;12678;51.336;12.406;2022-11-20T09:06:17;34.33;;;10.93;;
24517;SDS011;12678;51.336;12.406;2022-11-20T09:08:43;26.88;;;9.73;;
24517;SDS011;12678;51.336;12.406;2022-11-20T09:11:09;29.48;;;10.15;;
24517;SDS011;12678;51.336;12.406;2022-11-20T09:13:35;27.20;;;10.93;;
24517;SDS011;12678;51.336;12.406;2022-11-20T09:16:02;25.50;;;9.50;;
24517;SDS011;12678;51.336;12.406;2022-11-20T09:18:31;32.17;;;11.32;;
24517;SDS011;12678;51.336;12.406;2022-11-20T09:21:01;25.45;;;9.77;;
24517;SDS011;12678;51.336;12.406;2022-11-20T09:23:32;27.08;;;8.68;;
24517;SDS011;12678;51.336;12.406;2022-11-20T09:26:04;24.52;;;9.27;;
24517;SDS011;12678;51.336;12.406;2022-11-20T09:28:30;25.02;;;9.18;;
24517;SDS011;12678;51.336;12.406;2022-11-20T09:30:56;24.80;;;10.13;;
24517;SDS011;12678;51.336;12.406;2022-11-20T09:33:22;19.58;;;8.05;;
24517;SDS011;12678;51.336;12.406;2022-11-20T09:35:48;21.23;;;8.00;;
24517;SDS011;12678;51.336;12.406;2022-11-20T09:38:13;29.55;;;8.90;;
24517;SDS011;12678;51.336;12.406;2022-11-20T09:40:49;17.15;;;7.57;;
24517;SDS011;12678;51.336;12.406;2022-11-20T09:48:48;22.25;;;9.45;;
24517;SDS011;12678;51.336;12.406;2022-11-20T09:54:35;20.98;;;7.78;;
24517;SDS011;12678;51.336;12.406;2022-11-20T09:57:13;30.45;;;8.93;;
24517;SDS011;12678;51.336;12.406;2022-11-20T10:05:21;20.65;;;7.68;;
24517;SDS011;12678;51.336;12.406;2022-11-20T10:08:22;20.42;;;8.68;;
24517;SDS011;12678;51.336;12.406;2022-11-20T10:11:04;21.63;;;9.50;;
24517;SDS011;12678;51.336;12.406;2022-11-20T10:30:09;22.25;;;8.48;;
24517;SDS011;12678;51.336;12.406;2022-11-20T10:32:38;15.45;;;6.35;;
24517;SDS011;12678;51.336;12.406;2022-11-20T10:37:56;19.73;;;7.75;;
24517;SDS011;12678;51.336;12.406;2022-11-20T10:40:33;20.50;;;7.85;;
24517;SDS011;12678;51.336;12.406;2022-11-20T10:43:09;22.20;;;7.45;;
24517;SDS011;12678;51.336;12.406;2022-11-20T10:45:43;20.27;;;7.37;;
24517;SDS011;12678;51.336;12.406;2022-11-20T10:48:26;18.05;;;7.40;;
24517;SDS011;12678;51.336;12.406;2022-11-20T10:54:09;22.20;;;7.72;;
24517;SDS011;12678;51.336;12.406;2022-11-20T10:56:44;22.75;;;8.10;;
24517;SDS011;12678;51.336;12.406;2022-11-20T11:01:46;24.00;;;7.30;;
24517;SDS011;12678;51.336;12.406;2022-11-20T11:04:23;16.70;;;7.15;;
24517;SDS011;12678;51.336;12.406;2022-11-20T11:06:58;19.38;;;6.88;;
24517;SDS011;12678;51.336;12.406;2022-11-20T11:09:49;20.75;;;8.50;;
24517;SDS011;12678;51.336;12.406;2022-11-20T11:12:19;16.08;;;6.85;;
24517;SDS011;12678;51.336;12.406;2022-11-20T11:14:51;22.27;;;7.80;;
24517;SDS011;12678;51.336;12.406;2022-11-20T11:17:26;15.82;;;6.53;;
24517;SDS011;12678;51.336;12.406;2022-11-20T11:27:48;14.23;;;5.90;;
24517;SDS011;12678;51.336;12.406;2022-11-20T11:30:15;10.85;;;5.00;;
24517;SDS011;12678;51.336;12.406;2022-11-20T11:32:43;15.95;;;6.15;;
24517;SDS011;12678;51.336;12.406;2022-11-20T11:35:21;14.32;;;5.63;;
24517;SDS011;12678;51.336;12.406;2022-11-20T11:37:49;13.35;;;5.10;;
24517;SDS011;12678;51.336;12.406;2022-11-20T11:40:17;13.95;;;5.85;;
24517;SDS011;12678;51.336;12.406;2022-11-20T11:42:46;14.35;;;6.30;;
24517;SDS011;12678;51.336;12.406;2022-11-20T11:45:18;12.30;;;5.03;;
24517;SDS011;12678;51.336;12.406;2022-11-20T11:47:45;25.45;;;7.60;;
24517;SDS011;12678;51.336;12.406;2022-11-20T11:50:14;19.25;;;6.88;;
24517;SDS011;12678;51.336;12.406;2022-11-20T11:55:33;16.70;;;6.75;;
24517;SDS011;12678;51.336;12.406;2022-11-20T12:00:57;14.07;;;6.32;;
24517;SDS011;12678;51.336;12.406;2022-11-20T12:03:35;14.13;;;5.90;;
24517;SDS011;12678;51.336;12.406;2022-11-20T12:06:10;15.05;;;6.00;;
24517;SDS011;12678;51.336;12.406;2022-11-20T12:14:04;19.45;;;6.78;;
24517;SDS011;12678;51.336;12.406;2022-11-20T12:16:48;18.70;;;8.32;;
24517;SDS011;12678;51.336;12.406;2022-11-20T12:19:15;12.23;;;6.07;;
24517;SDS011;12678;51.336;12.406;2022-11-20T12:30:18;10.60;;;5.03;;
24517;SDS011;12678;51.336;12.406;2022-11-20T12:32:51;14.90;;;6.53;;
24517;SDS011;12678;51.336;12.406;2022-11-20T12:38:42;15.82;;;5.82;;
24517;SDS011;12678;51.336;12.406;2022-11-20T12:47:28;14.90;;;6.30;;
24517;SDS011;12678;51.336;12.406;2022-11-20T12:50:02;13.32;;;5.10;;
24517;SDS011;12678;51.336;12.406;2022-11-20T12:52:43;14.63;;;5.80;;
24517;SDS011;12678;51.336;12.406;2022-11-20T12:55:32;14.73;;;6.20;;
24517;SDS011;12678;51.336;12.406;2022-11-20T13:01:09;9.25;;;5.10;;
24517;SDS011;12678;51.336;12.406;2022-11-20T13:06:56;16.45;;;5.15;;
24517;SDS011;12678;51.336;12.406;2022-11-20T13:09:23;14.68;;;6.35;;
24517;SDS011;12678;51.336;12.406;2022-11-20T13:11:53;12.52;;;5.57;;
24517;SDS011;12678;51.336;12.406;2022-11-20T13:14:27;13.32;;;5.68;;
24517;SDS011;12678;51.336;12.406;2022-11-20T13:19:52;11.67;;;5.47;;
24517;SDS011;12678;51.336;12.406;2022-11-20T13:22:28;12.48;;;5.28;;
24517;SDS011;12678;51.336;12.406;2022-11-20T13:25:10;11.75;;;5.50;;
24517;SDS011;12678;51.336;12.406;2022-11-20T13:27:47;15.70;;;5.20;;
24517;SDS011;12678;51.336;12.406;2022-11-20T13:30:15;14.80;;;5.78;;
24517;SDS011;12678;51.336;12.406;2022-11-20T13:32:58;18.13;;;7.47;;
24517;SDS011;12678;51.336;12.406;2022-11-20T13:40:27;15.48;;;6.35;;
24517;SDS011;12678;51.336;12.406;2022-11-20T13:45:40;12.63;;;5.00;;
24517;SDS011;12678;51.336;12.406;2022-11-20T13:48:18;11.93;;;4.95;;
24517;SDS011;12678;51.336;12.406;2022-11-20T14:01:34;13.07;;;5.28;;
24517;SDS011;12678;51.336;12.406;2022-11-20T14:04:01;11.90;;;5.25;;
24517;SDS011;12678;51.336;12.406;2022-11-20T14:06:41;16.92;;;4.40;;
24517;SDS011;12678;51.336;12.406;2022-11-20T14:09:13;23.50;;;6.28;;
24517;SDS011;12678;51.336;12.406;2022-11-20T14:11:50;10.02;;;4.30;;
24517;SDS011;12678;51.336;12.406;2022-11-20T14:14:17;9.27;;;4.32;;
24517;SDS011;12678;51.336;12.406;2022-11-20T14:16:48;10.05;;;4.68;;
24517;SDS011;12678;51.336;12.406;2022-11-20T14:21:46;11.77;;;4.45;;
24517;SDS011;12678;51.336;12.406;2022-11-20T14:24:13;12.57;;;5.38;;
24517;SDS011;12678;51.336;12.406;2022-11-20T14:26:43;15.00;;;6.05;;
24517;SDS011;12678;51.336;12.406;2022-11-20T14:29:13;12.05;;;5.00;;
24517;SDS011;12678;51.336;12.406;2022-11-20T14:31:41;13.30;;;5.15;;
24517;SDS011;12678;51.336;12.406;2022-11-20T14:34:24;9.85;;;4.82;;
24517;SDS011;12678;51.336;12.406;2022-11-20T14:36:57;14.30;;;5.82;;
24517;SDS011;12678;51.336;12.406;2022-11-20T14:39:32;10.95;;;5.30;;
24517;SDS011;12678;51.336;12.406;2022-11-20T14:41:59;13.88;;;5.55;;
24517;SDS011;12678;51.336;12.406;2022-11-20T14:44:32;13.05;;;6.25;;
24517;SDS011;12678;51.336;12.406;2022-11-20T14:47:02;12.10;;;5.38;;
24517;SDS011;12678;51.336;12.406;2022-11-20T14:49:29;15.13;;;5.90;;
24517;SDS011;12678;51.336;12.406;2022-11-20T14:52:00;18.17;;;6.60;;
24517;SDS011;12678;51.336;12.406;2022-11-20T14:54:27;14.88;;;5.93;;
24517;SDS011;12678;51.336;12.406;2022-11-20T14:56:59;14.93;;;5.80;;
24517;SDS011;12678;51.336;12.406;2022-11-20T14:59:30;13.70;;;6.18;;
24517;SDS011;12678;51.336;12.406;2022-11-20T15:04:24;24.15;;;10.07;;
24517;SDS011;12678;51.336;12.406;2022-11-20T15:06:51;21.60;;;9.30;;
24517;SDS011;12678;51.336;12.406;2022-11-20T15:09:18;19.00;;;8.13;;
24517;SDS011;12678;51.336;12.406;2022-11-20T15:12:00;20.42;;;8.00;;
24517;SDS011;12678;51.336;12.406;2022-11-20T15:14:28;21.80;;;8.32;;
24517;SDS011;12678;51.336;12.406;2022-11-20T15:16:54;26.52;;;9.75;;
24517;SDS011;12678;51.336;12.406;2022-11-20T15:19:21;26.23;;;12.50;;
24517;SDS011;12678;51.336;12.406;2022-11-20T15:21:49;26.10;;;11.85;;
24517;SDS011;12678;51.336;12.406;2022-11-20T15:24:15;24.33;;;9.98;;
24517;SDS011;12678;51.336;12.406;2022-11-20T15:26:40;27.35;;;9.75;;
24517;SDS011;12678;51.336;12.406;2022-11-20T15:29:13;33.38;;;12.30;;
24517;SDS011;12678;51.336;12.406;2022-11-20T15:31:43;27.88;;;10.07;;
24517;SDS011;12678;51.336;12.406;2022-11-20T15:34:13;24.88;;;9.65;;
24517;SDS011;12678;51.336;12.406;2022-11-20T15:36:40;26.77;;;10.00;;
24517;SDS011;12678;51.336;12.406;2022-11-20T15:39:07;25.02;;;10.00;;
24517;SDS011;12678;51.336;12.406;2022-11-20T15:41:36;29.98;;;12.00;;
24517;SDS011;12678;51.336;12.406;2022-11-20T15:44:03;26.88;;;11.40;;
24517;SDS011;12678;51.336;12.406;2022-11-20T15:46:30;30.13;;;12.85;;
24517;SDS011;12678;51.336;12.406;2022-11-20T15:51:31;30.23;;;12.25;;
24517;SDS011;12678;51.336;12.406;2022-11-20T15:53:59;31.65;;;11.95;;
24517;SDS011;12678;51.336;12.406;2022-11-20T15:56:25;30.40;;;13.82;;
24517;SDS011;12678;51.336;12.406;2022-11-20T15:58:51;34.22;;;14.02;;
24517;SDS011;12678;51.336;12.406;2022-11-20T16:01:18;21.00;;;11.23;;
24517;SDS011;12678;51.336;12.406;2022-11-20T16:03:45;25.05;;;10.55;;
24517;SDS011;12678;51.336;12.406;2022-11-20T16:06:11;26.83;;;10.38;;
24517;SDS011;12678;51.336;12.406;2022-11-20T16:08:37;34.28;;;12.07;;
24517;SDS011;12678;51.336;12.406;2022-11-20T16:11:03;40.03;;;15.52;;
24517;SDS011;12678;51.336;12.406;2022-11-20T16:13:30;42.55;;;16.70;;
24517;SDS011;12678;51.336;12.406;2022-11-20T16:18:49;23.65;;;10.48;;
24517;SDS011;12678;51.336;12.406;2022-11-20T16:21:15;19.20;;;9.02;;
24517;SDS011;12678;51.336;12.406;2022-11-20T16:23:41;20.00;;;8.45;;
24517;SDS011;12678;51.336;12.406;2022-11-20T16:26:10;22.05;;;9.32;;